createdAt,value
2017-07-09T00:00:45.012Z,99.99
2017-07-09T00:01:57.351Z,99.99
2017-07-09T00:03:09.632Z,99.99
2017-07-09T00:04:22.201Z,99.99
2017-07-09T00:05:34.824Z,99.99
2017-07-09T00:06:46.773Z,99.99
2017-07-09T00:07:59.337Z,99.99
2017-07-09T00:09:11.283Z,99.99
2017-07-09T00:10:23.254Z,99.99
2017-07-09T00:11:35.513Z,99.99
2017-07-09T00:12:48.124Z,99.99
2017-07-09T00:14:00.659Z,99.99
2017-07-09T00:15:13.265Z,99.99
2017-07-09T00:16:25.184Z,99.99
2017-07-09T00:17:37.457Z,99.99
2017-07-09T00:18:49.400Z,99.99
2017-07-09T00:20:01.990Z,99.99
2017-07-09T00:21:14.318Z,99.99
2017-07-09T00:22:26.326Z,99.99
2017-07-09T00:23:38.016Z,99.99
2017-07-09T00:24:50.551Z,99.99
2017-07-09T00:26:02.467Z,99.99
2017-07-09T00:27:14.759Z,99.99
2017-07-09T00:28:27.335Z,99.99
2017-07-09T00:29:39.895Z,99.99
2017-07-09T00:30:51.891Z,99.99
2017-07-09T00:32:04.484Z,99.99
2017-07-09T00:33:16.775Z,99.99
2017-07-09T00:34:29.034Z,99.99
2017-07-09T00:35:41.368Z,99.99
2017-07-09T00:36:53.915Z,99.99
2017-07-09T00:38:05.872Z,99.99
2017-07-09T00:39:18.199Z,99.99
2017-07-09T00:40:30.477Z,99.99
2017-07-09T00:41:42.777Z,99.99
2017-07-09T00:42:54.687Z,99.99
2017-07-09T00:44:06.935Z,99.99
2017-07-09T00:45:18.939Z,99.99
2017-07-09T00:46:31.238Z,99.99
2017-07-09T00:47:43.779Z,99.99
2017-07-09T00:48:56.380Z,99.99
2017-07-09T00:50:08.607Z,99.99
2017-07-09T00:51:20.852Z,99.99
2017-07-09T00:52:33.453Z,99.99
2017-07-09T00:53:45.399Z,99.99
2017-07-09T00:54:57.666Z,99.99
2017-07-09T00:56:09.925Z,99.99
2017-07-09T00:57:21.847Z,99.99
2017-07-09T00:58:34.449Z,99.99
2017-07-09T00:59:46.379Z,99.99
2017-07-09T01:00:58.950Z,99.99
2017-07-09T01:02:11.507Z,99.99
2017-07-09T01:03:24.136Z,99.99
2017-07-09T01:04:37.028Z,99.99
2017-07-09T01:05:49.624Z,99.99
2017-07-09T01:07:01.593Z,99.99
2017-07-09T01:08:13.859Z,99.99
2017-07-09T01:09:25.527Z,99.99
2017-07-09T01:10:38.118Z,99.99
2017-07-09T01:11:50.695Z,99.99
2017-07-09T01:13:02.961Z,99.99
2017-07-09T01:14:15.486Z,99.99
2017-07-09T01:15:28.122Z,99.99
2017-07-09T01:16:40.709Z,99.99
2017-07-09T01:17:53.362Z,99.99
2017-07-09T01:19:05.352Z,99.99
2017-07-09T01:20:17.880Z,99.99
2017-07-09T01:21:30.205Z,99.99
2017-07-09T01:22:42.434Z,99.99
2017-07-09T01:23:54.386Z,99.99
2017-07-09T01:25:06.954Z,99.99
2017-07-09T01:26:19.226Z,99.99
2017-07-09T01:27:31.499Z,99.99
2017-07-09T01:28:43.764Z,99.99
2017-07-09T01:29:56.060Z,99.99
2017-07-09T01:31:08.623Z,99.99
2017-07-09T01:32:21.228Z,99.99
2017-07-09T01:33:33.572Z,99.99
2017-07-09T01:34:46.200Z,99.99
2017-07-09T01:35:58.846Z,99.99
2017-07-09T01:37:11.066Z,99.99
2017-07-09T01:38:23.388Z,99.99
2017-07-09T01:39:35.631Z,99.99
2017-07-09T01:40:47.257Z,99.99
2017-07-09T01:42:00.057Z,99.99
2017-07-09T01:43:12.616Z,99.99
2017-07-09T01:44:25.218Z,99.99
2017-07-09T01:45:37.790Z,99.99
2017-07-09T01:46:49.727Z,99.99
2017-07-09T01:48:01.724Z,99.99
2017-07-09T01:49:14.008Z,99.99
2017-07-09T01:50:26.664Z,99.99
2017-07-09T01:51:39.272Z,99.99
2017-07-09T01:52:51.842Z,99.99
2017-07-09T01:54:04.145Z,99.99
2017-07-09T01:55:16.400Z,99.99
2017-07-09T01:56:28.623Z,99.99
2017-07-09T01:57:40.871Z,99.99
2017-07-09T01:58:53.487Z,99.99
2017-07-09T02:00:05.136Z,99.99
2017-07-09T02:01:17.786Z,99.99
2017-07-09T02:02:30.360Z,99.99
2017-07-09T02:03:42.288Z,99.99
2017-07-09T02:04:54.548Z,99.99
2017-07-09T02:06:06.766Z,99.99
2017-07-09T02:07:19.033Z,99.99
2017-07-09T02:08:31.557Z,99.99
2017-07-09T02:09:44.128Z,99.99
2017-07-09T02:10:56.777Z,99.99
2017-07-09T02:12:08.429Z,99.99
2017-07-09T02:13:20.689Z,99.99
2017-07-09T02:14:32.990Z,99.99
2017-07-09T02:15:45.521Z,99.99
2017-07-09T02:16:57.824Z,99.99
2017-07-09T02:18:10.108Z,99.99
2017-07-09T02:19:22.701Z,99.99
2017-07-09T02:20:34.956Z,99.99
2017-07-09T02:21:46.608Z,99.99
2017-07-09T02:22:58.837Z,99.99
2017-07-09T02:24:10.144Z,99.99
2017-07-09T02:25:22.424Z,99.99
2017-07-09T02:26:34.996Z,99.99
2017-07-09T02:27:47.320Z,99.99
2017-07-09T02:28:59.877Z,99.99
2017-07-09T02:30:12.449Z,99.99
2017-07-09T02:31:24.387Z,99.99
2017-07-09T02:32:36.685Z,99.99
2017-07-09T02:33:48.967Z,99.99
2017-07-09T02:35:01.558Z,99.99
2017-07-09T02:36:14.102Z,99.99
2017-07-09T02:37:26.304Z,99.99
2017-07-09T02:38:38.545Z,99.99
2017-07-09T02:39:50.810Z,99.99
2017-07-09T02:41:03.123Z,99.99
2017-07-09T02:42:15.422Z,99.99
2017-07-09T02:43:27.719Z,99.99
2017-07-09T02:44:40.282Z,99.99
2017-07-09T02:45:52.527Z,99.99
2017-07-09T02:47:04.777Z,99.99
2017-07-09T02:48:16.713Z,99.99
2017-07-09T02:49:29.047Z,99.99
2017-07-09T02:50:41.654Z,99.99
2017-07-09T02:51:54.242Z,99.99
2017-07-09T02:53:06.879Z,99.99
2017-07-09T02:54:19.450Z,99.99
2017-07-09T02:55:31.720Z,99.99
2017-07-09T02:56:44.329Z,99.99
2017-07-09T02:57:57.012Z,99.99
2017-07-09T02:59:08.979Z,99.99
2017-07-09T03:00:21.507Z,99.99
2017-07-09T03:01:34.070Z,99.99
2017-07-09T03:02:46.681Z,99.99
2017-07-09T03:03:58.920Z,99.99
2017-07-09T03:05:10.588Z,99.99
2017-07-09T03:06:22.894Z,99.99
2017-07-09T03:07:35.154Z,99.99
2017-07-09T03:08:47.380Z,99.99
2017-07-09T03:09:59.665Z,99.99
2017-07-09T03:11:12.259Z,99.99
2017-07-09T03:12:24.520Z,99.99
2017-07-09T03:13:37.151Z,99.99
2017-07-09T03:14:49.955Z,99.99
2017-07-09T03:16:02.258Z,99.99
2017-07-09T03:17:14.790Z,99.99
2017-07-09T03:18:27.075Z,99.99
2017-07-09T03:19:38.793Z,99.99
2017-07-09T03:20:51.403Z,99.99
2017-07-09T03:22:03.388Z,99.99
2017-07-09T03:23:15.358Z,99.99
2017-07-09T03:24:27.049Z,99.99
2017-07-09T03:25:39.618Z,99.99
2017-07-09T03:26:51.916Z,99.99
2017-07-09T03:28:04.143Z,99.99
2017-07-09T03:29:16.781Z,99.99
2017-07-09T03:30:29.334Z,99.99
2017-07-09T03:31:41.251Z,99.99
2017-07-09T03:32:53.845Z,99.99
2017-07-09T03:34:05.798Z,99.99
2017-07-09T03:35:18.004Z,99.99
2017-07-09T03:36:30.249Z,99.99
2017-07-09T03:37:42.828Z,99.99
2017-07-09T03:38:55.455Z,99.99
2017-07-09T03:40:07.720Z,99.99
2017-07-09T03:41:19.967Z,99.99
2017-07-09T03:42:32.479Z,99.99
2017-07-09T03:43:44.760Z,99.99
2017-07-09T03:44:57.109Z,99.99
2017-07-09T03:46:09.077Z,99.99
2017-07-09T03:47:21.387Z,99.99
2017-07-09T03:48:33.929Z,99.99
2017-07-09T03:49:46.213Z,99.99
2017-07-09T03:50:58.764Z,99.99
2017-07-09T03:52:11.579Z,99.99
2017-07-09T03:53:23.800Z,99.99
2017-07-09T03:54:36.046Z,99.99
2017-07-09T03:55:47.992Z,99.99
2017-07-09T03:57:00.595Z,99.99
2017-07-09T03:58:12.534Z,99.99
2017-07-09T03:59:24.797Z,99.99
2017-07-09T04:00:37.100Z,99.99
2017-07-09T04:01:49.015Z,99.99
2017-07-09T04:03:01.293Z,99.99
2017-07-09T04:04:13.600Z,99.99
2017-07-09T04:05:25.959Z,99.99
2017-07-09T04:06:38.511Z,99.99
2017-07-09T04:07:50.807Z,99.99
2017-07-09T04:09:02.422Z,99.99
2017-07-09T04:10:14.718Z,99.99
2017-07-09T04:11:26.992Z,99.99
2017-07-09T04:12:39.598Z,99.99
2017-07-09T04:13:52.213Z,99.99
2017-07-09T04:15:04.781Z,99.99
2017-07-09T04:16:17.429Z,99.99
2017-07-09T04:17:29.669Z,99.99
2017-07-09T04:18:41.293Z,99.99
2017-07-09T04:19:53.848Z,99.99
2017-07-09T04:21:06.464Z,99.99
2017-07-09T04:22:18.755Z,99.99
2017-07-09T04:23:30.652Z,99.99
2017-07-09T04:24:42.611Z,99.99
2017-07-09T04:25:55.218Z,99.99
2017-07-09T04:27:07.173Z,99.99
2017-07-09T04:28:19.480Z,99.99
2017-07-09T04:29:32.109Z,99.99
2017-07-09T04:30:44.400Z,99.99
2017-07-09T04:31:56.951Z,99.99
2017-07-09T04:33:09.532Z,99.99
2017-07-09T04:34:22.135Z,99.99
2017-07-09T04:35:34.686Z,99.99
2017-07-09T04:36:47.297Z,99.99
2017-07-09T04:37:59.261Z,99.99
2017-07-09T04:39:11.897Z,99.99
2017-07-09T04:40:24.536Z,99.99
2017-07-09T04:41:36.467Z,99.99
2017-07-09T04:42:48.708Z,99.99
2017-07-09T04:44:00.981Z,99.99
2017-07-09T04:45:13.250Z,99.99
2017-07-09T04:46:25.553Z,99.99
2017-07-09T04:47:37.835Z,99.99
2017-07-09T04:48:50.391Z,99.99
2017-07-09T04:50:03.045Z,99.99
2017-07-09T04:51:15.341Z,99.99
2017-07-09T04:52:27.950Z,99.99
2017-07-09T04:53:40.513Z,99.99
2017-07-09T04:54:52.891Z,99.99
2017-07-09T04:56:05.181Z,99.99
2017-07-09T04:57:17.435Z,99.99
2017-07-09T04:58:29.437Z,99.99
2017-07-09T04:59:42.026Z,99.99
2017-07-09T05:00:54.603Z,99.99
2017-07-09T05:02:06.879Z,99.99
2017-07-09T05:03:19.406Z,99.99
2017-07-09T05:04:31.963Z,99.99
2017-07-09T05:05:44.534Z,99.99
2017-07-09T05:06:56.838Z,99.99
2017-07-09T05:08:09.415Z,99.99
2017-07-09T05:09:21.669Z,99.99
2017-07-09T05:10:34.274Z,99.99
2017-07-09T05:11:46.838Z,99.99
2017-07-09T05:12:59.456Z,99.99
2017-07-09T05:14:11.730Z,99.99
2017-07-09T05:15:24.022Z,99.99
2017-07-09T05:16:36.572Z,99.99
2017-07-09T05:17:49.132Z,99.99
2017-07-09T05:19:01.772Z,99.99
2017-07-09T05:20:14.371Z,99.99
2017-07-09T05:21:26.645Z,99.99
2017-07-09T05:22:39.234Z,99.99
2017-07-09T05:23:51.221Z,99.99
2017-07-09T05:25:03.507Z,99.99
2017-07-09T05:26:15.885Z,99.99
2017-07-09T05:27:28.456Z,99.99
2017-07-09T05:28:40.335Z,99.99
2017-07-09T05:29:53.273Z,99.99
2017-07-09T05:31:05.581Z,99.99
2017-07-09T05:32:18.216Z,99.99
2017-07-09T05:33:30.753Z,99.99
2017-07-09T05:34:42.970Z,99.99
2017-07-09T05:35:55.554Z,99.99
2017-07-09T05:37:07.772Z,99.99
2017-07-09T05:38:20.346Z,99.99
2017-07-09T05:39:32.297Z,99.99
2017-07-09T05:40:44.563Z,99.99
2017-07-09T05:41:56.764Z,99.99
2017-07-09T05:43:09.331Z,99.99
2017-07-09T05:44:21.955Z,99.99
2017-07-09T05:45:34.557Z,99.99
2017-07-09T05:46:47.132Z,99.99
2017-07-09T05:47:59.405Z,99.99
2017-07-09T05:49:11.675Z,99.99
2017-07-09T05:50:23.977Z,99.99
2017-07-09T05:51:36.503Z,99.99
2017-07-09T05:52:48.795Z,99.99
2017-07-09T05:54:01.119Z,99.99
2017-07-09T05:55:13.355Z,99.99
2017-07-09T05:56:25.365Z,99.99
2017-07-09T05:57:37.952Z,99.99
2017-07-09T05:58:50.542Z,99.99
2017-07-09T06:00:02.751Z,99.99
2017-07-09T06:01:15.032Z,99.99
2017-07-09T06:02:27.879Z,99.99
2017-07-09T06:03:40.195Z,99.99
2017-07-09T06:04:52.522Z,99.99
2017-07-09T06:06:04.806Z,99.99
2017-07-09T06:07:17.073Z,99.99
2017-07-09T06:08:29.348Z,99.99
2017-07-09T06:09:41.958Z,99.99
2017-07-09T06:10:54.590Z,99.99
2017-07-09T06:12:06.830Z,99.99
2017-07-09T06:13:19.105Z,99.99
2017-07-09T06:14:31.380Z,99.99
2017-07-09T06:15:43.675Z,99.99
2017-07-09T06:16:55.974Z,99.99
2017-07-09T06:18:08.285Z,99.99
2017-07-09T06:19:20.857Z,99.99
2017-07-09T06:20:33.226Z,99.99
2017-07-09T06:21:45.509Z,99.99
2017-07-09T06:22:57.835Z,99.99
2017-07-09T06:24:08.857Z,99.99
2017-07-09T06:25:21.472Z,99.99
2017-07-09T06:26:33.760Z,99.99
2017-07-09T06:27:45.426Z,99.99
2017-07-09T06:28:57.698Z,99.99
2017-07-09T06:30:10.242Z,99.99
2017-07-09T06:31:22.855Z,99.99
2017-07-09T06:32:34.813Z,99.99
2017-07-09T06:33:47.374Z,99.99
2017-07-09T06:34:59.365Z,99.99
2017-07-09T06:36:11.998Z,99.99
2017-07-09T06:37:24.238Z,99.99
2017-07-09T06:38:36.193Z,99.99
2017-07-09T06:39:48.729Z,99.99
2017-07-09T06:41:01.370Z,99.99
2017-07-09T06:42:13.707Z,99.99
2017-07-09T06:43:25.999Z,99.99
2017-07-09T06:44:38.301Z,99.99
2017-07-09T06:45:50.507Z,99.99
2017-07-09T06:47:02.537Z,99.99
2017-07-09T06:48:14.585Z,99.99
2017-07-09T06:49:27.179Z,99.99
2017-07-09T06:50:39.401Z,99.99
2017-07-09T06:51:51.663Z,99.99
2017-07-09T06:53:04.241Z,99.99
2017-07-09T06:54:16.168Z,98.34
2017-07-09T06:55:28.767Z,99.99
2017-07-09T06:56:41.371Z,99.99
2017-07-09T06:57:53.731Z,99.99
2017-07-09T06:59:06.352Z,99.99
2017-07-09T07:00:18.981Z,99.99
2017-07-09T07:01:31.555Z,99.99
2017-07-09T07:02:43.821Z,99.99
2017-07-09T07:03:56.433Z,99.99
2017-07-09T07:05:09.075Z,99.99
2017-07-09T07:06:21.022Z,99.99
2017-07-09T07:07:32.974Z,97.42
2017-07-09T07:08:44.641Z,99.6
2017-07-09T07:09:56.315Z,99.99
2017-07-09T07:11:08.955Z,99.99
2017-07-09T07:12:21.532Z,99.99
2017-07-09T07:13:33.564Z,99.99
2017-07-09T07:14:45.498Z,99.99
2017-07-09T07:15:58.057Z,98.1
2017-07-09T07:17:09.677Z,99.79
2017-07-09T07:18:21.972Z,98.83
2017-07-09T07:19:34.630Z,99.99
2017-07-09T07:20:46.875Z,99.99
2017-07-09T07:21:59.518Z,99.99
2017-07-09T07:23:10.888Z,97.81
2017-07-09T07:24:22.217Z,97.81
2017-07-09T07:25:34.181Z,96.94
2017-07-09T07:26:46.480Z,95.05
2017-07-09T07:27:58.824Z,93.94
2017-07-09T07:29:11.172Z,90.75
2017-07-09T07:30:23.416Z,95.34
2017-07-09T07:31:35.386Z,97.04
2017-07-09T07:32:47.643Z,93.36
2017-07-09T07:34:00.005Z,92.88
2017-07-09T07:35:12.290Z,95.2
2017-07-09T07:36:24.287Z,96.55
2017-07-09T07:37:36.492Z,96.6
2017-07-09T07:38:48.761Z,93.02
2017-07-09T07:40:01.257Z,92.24
2017-07-09T07:41:13.563Z,90.7
2017-07-09T07:42:25.235Z,88.81
2017-07-09T07:43:37.270Z,90.26
2017-07-09T07:44:49.870Z,89.77
2017-07-09T07:46:02.436Z,84.74
2017-07-09T07:47:14.411Z,82.03
2017-07-09T07:48:26.684Z,84.93
2017-07-09T07:49:38.979Z,84.64
2017-07-09T07:50:51.575Z,86
2017-07-09T07:52:04.185Z,87.74
2017-07-09T07:53:16.758Z,88.51
2017-07-09T07:54:28.739Z,89
2017-07-09T07:55:41.315Z,88.51
2017-07-09T07:56:53.629Z,87.93
2017-07-09T07:58:06.171Z,88.71
2017-07-09T07:59:18.531Z,89.29
2017-07-09T08:00:30.536Z,88.03
2017-07-09T08:01:42.840Z,86.48
2017-07-09T08:02:55.097Z,87.16
2017-07-09T08:04:07.368Z,87.35
2017-07-09T08:05:19.632Z,88.23
2017-07-09T08:06:31.917Z,88.13
2017-07-09T08:07:43.600Z,87.45
2017-07-09T08:08:56.202Z,82.7
2017-07-09T08:10:08.486Z,82.47
2017-07-09T08:11:20.452Z,83.83
2017-07-09T08:12:32.672Z,86.15
2017-07-09T08:13:45.281Z,84.66
2017-07-09T08:14:57.967Z,85.33
2017-07-09T08:16:09.966Z,86.78
2017-07-09T08:17:22.555Z,86.78
2017-07-09T08:18:34.494Z,88.04
2017-07-09T08:19:46.850Z,88.04
2017-07-09T08:20:59.156Z,87.61
2017-07-09T08:22:11.750Z,88.29
2017-07-09T08:23:23.671Z,90.27
2017-07-09T08:24:36.262Z,90.85
2017-07-09T08:25:48.794Z,89.5
2017-07-09T08:27:01.364Z,88.49
2017-07-09T08:28:13.630Z,88.59
2017-07-09T08:29:26.189Z,89.07
2017-07-09T08:30:38.110Z,90.37
2017-07-09T08:31:50.382Z,88.83
2017-07-09T08:33:02.728Z,89.89
2017-07-09T08:34:14.684Z,91.15
2017-07-09T08:35:26.938Z,91.59
2017-07-09T08:36:39.572Z,90.14
2017-07-09T08:37:52.148Z,90.23
2017-07-09T08:39:04.489Z,91.49
2017-07-09T08:40:17.071Z,91.74
2017-07-09T08:41:29.580Z,92.6
2017-07-09T08:42:41.897Z,91.64
2017-07-09T08:43:54.469Z,91.44
2017-07-09T08:45:07.319Z,92.5
2017-07-09T08:46:19.587Z,93.85
2017-07-09T08:47:32.178Z,93.95
2017-07-09T08:48:44.100Z,94.73
2017-07-09T08:49:56.621Z,94.15
2017-07-09T08:51:08.268Z,92.02
2017-07-09T08:52:20.191Z,92.89
2017-07-09T08:53:32.808Z,93.23
2017-07-09T08:54:45.348Z,93.52
2017-07-09T08:55:57.952Z,94.1
2017-07-09T08:57:10.233Z,94.78
2017-07-09T08:58:22.516Z,93.71
2017-07-09T08:59:34.793Z,93.33
2017-07-09T09:00:46.784Z,93.81
2017-07-09T09:01:59.373Z,94.1
2017-07-09T09:03:11.602Z,95.06
2017-07-09T09:04:23.515Z,94
2017-07-09T09:05:35.785Z,93.43
2017-07-09T09:06:48.592Z,94.48
2017-07-09T09:08:00.893Z,94.78
2017-07-09T09:09:12.840Z,94.78
2017-07-09T09:10:25.152Z,94.78
2017-07-09T09:11:37.779Z,96.46
2017-07-09T09:12:50.056Z,94.24
2017-07-09T09:14:02.365Z,94.82
2017-07-09T09:15:14.663Z,94.63
2017-07-09T09:16:27.204Z,95.36
2017-07-09T09:17:39.763Z,95.26
2017-07-09T09:18:52.435Z,95.26
2017-07-09T09:20:04.697Z,96.32
2017-07-09T09:21:17.305Z,95.84
2017-07-09T09:22:29.341Z,95.16
2017-07-09T09:23:40.350Z,94.96
2017-07-09T09:24:52.658Z,95.84
2017-07-09T09:26:04.678Z,95.74
2017-07-09T09:27:17.187Z,95.84
2017-07-09T09:28:29.442Z,96.03
2017-07-09T09:29:42.054Z,96.12
2017-07-09T09:30:54.634Z,94.82
2017-07-09T09:32:06.927Z,92.41
2017-07-09T09:33:19.552Z,93.47
2017-07-09T09:34:31.856Z,94.53
2017-07-09T09:35:44.446Z,94.24
2017-07-09T09:36:57.018Z,94.24
2017-07-09T09:38:09.607Z,93.66
2017-07-09T09:39:22.454Z,94.15
2017-07-09T09:40:34.085Z,94.63
2017-07-09T09:41:46.374Z,93.85
2017-07-09T09:42:58.897Z,92.36
2017-07-09T09:44:10.931Z,91.78
2017-07-09T09:45:23.520Z,91.39
2017-07-09T09:46:35.503Z,91.88
2017-07-09T09:47:47.477Z,91.3
2017-07-09T09:49:00.039Z,91.11
2017-07-09T09:50:11.417Z,91.78
2017-07-09T09:51:23.613Z,91.68
2017-07-09T09:52:35.542Z,91.78
2017-07-09T09:53:47.863Z,93.13
2017-07-09T09:55:00.101Z,93.13
2017-07-09T09:56:11.770Z,92.74
2017-07-09T09:57:24.043Z,92.89
2017-07-09T09:58:36.641Z,93.56
2017-07-09T09:59:48.958Z,93.66
2017-07-09T10:01:01.516Z,92.11
2017-07-09T10:02:13.226Z,88.64
2017-07-09T10:03:25.508Z,88.06
2017-07-09T10:04:38.063Z,88.73
2017-07-09T10:05:50.339Z,88.59
2017-07-09T10:07:02.310Z,86.94
2017-07-09T10:08:14.692Z,87.81
2017-07-09T10:09:26.971Z,87.91
2017-07-09T10:10:39.281Z,87.37
2017-07-09T10:11:51.523Z,86.99
2017-07-09T10:13:03.822Z,84.95
2017-07-09T10:14:16.028Z,85.44
2017-07-09T10:15:27.999Z,85.05
2017-07-09T10:16:40.320Z,85.1
2017-07-09T10:17:52.924Z,84.03
2017-07-09T10:19:04.609Z,85.39
2017-07-09T10:20:17.182Z,82.91
2017-07-09T10:21:29.429Z,82.04
2017-07-09T10:22:42.014Z,82.04
2017-07-09T10:23:53.366Z,81.37
2017-07-09T10:25:05.324Z,82.33
2017-07-09T10:26:17.577Z,83.69
2017-07-09T10:27:29.566Z,81.5
2017-07-09T10:28:42.186Z,81.4
2017-07-09T10:29:54.455Z,81.02
2017-07-09T10:31:06.130Z,79.47
2017-07-09T10:32:18.412Z,79.85
2017-07-09T10:33:31.014Z,78.74
2017-07-09T10:34:43.278Z,80.67
2017-07-09T10:35:55.240Z,81.45
2017-07-09T10:37:07.270Z,81.05
2017-07-09T10:38:19.872Z,80.47
2017-07-09T10:39:32.158Z,82.12
2017-07-09T10:40:44.737Z,82.51
2017-07-09T10:41:57.359Z,80.09
2017-07-09T10:43:09.645Z,80.28
2017-07-09T10:44:21.620Z,80.09
2017-07-09T10:45:33.555Z,79.93
2017-07-09T10:46:45.544Z,79.45
2017-07-09T10:47:58.100Z,80.71
2017-07-09T10:49:10.742Z,77.22
2017-07-09T10:50:23.056Z,76.93
2017-07-09T10:51:35.597Z,78.25
2017-07-09T10:52:47.905Z,77.19
2017-07-09T10:53:59.208Z,78.25
2017-07-09T10:55:09.972Z,79.74
2017-07-09T10:56:22.195Z,81.39
2017-07-09T10:57:34.835Z,81.48
2017-07-09T10:58:47.072Z,81.1
2017-07-09T10:59:59.406Z,80.62
2017-07-09T11:01:11.077Z,81.68
2017-07-09T11:02:23.675Z,82.2
2017-07-09T11:03:35.606Z,81.13
2017-07-09T11:04:48.202Z,81.62
2017-07-09T11:06:01.053Z,80.65
2017-07-09T11:07:12.721Z,81.72
2017-07-09T11:08:25.362Z,82.63
2017-07-09T11:09:37.355Z,83.12
2017-07-09T11:10:49.981Z,80.01
2017-07-09T11:12:02.292Z,79.72
2017-07-09T11:13:14.613Z,76.85
2017-07-09T11:14:26.936Z,76.17
2017-07-09T11:15:39.154Z,74.95
2017-07-09T11:16:51.716Z,74.95
2017-07-09T11:18:03.050Z,73.78
2017-07-09T11:19:15.328Z,72.45
2017-07-09T11:20:27.337Z,71.23
2017-07-09T11:21:39.662Z,69.9
2017-07-09T11:22:52.512Z,70.62
2017-07-09T11:24:04.481Z,70.23
2017-07-09T11:25:17.080Z,69.78
2017-07-09T11:26:29.322Z,68.45
2017-07-09T11:27:41.930Z,69.71
2017-07-09T11:28:54.484Z,69.17
2017-07-09T11:30:06.730Z,68.23
2017-07-09T11:31:18.682Z,67.93
2017-07-09T11:32:31.298Z,68.35
2017-07-09T11:33:43.894Z,64.58
2017-07-09T11:34:56.155Z,62.37
2017-07-09T11:36:08.140Z,61.23
2017-07-09T11:37:20.774Z,60.94
2017-07-09T11:38:33.059Z,61.16
2017-07-09T11:39:45.011Z,59.89
2017-07-09T11:40:57.324Z,59.33
2017-07-09T11:42:09.296Z,60.02
2017-07-09T11:43:21.586Z,60.63
2017-07-09T11:44:34.173Z,58.31
2017-07-09T11:45:45.812Z,57.76
2017-07-09T11:46:58.440Z,58.05
2017-07-09T11:48:10.430Z,57.78
2017-07-09T11:49:23.098Z,56.51
2017-07-09T11:50:35.310Z,57.42
2017-07-09T11:51:47.957Z,57.03
2017-07-09T11:53:00.250Z,54.8
2017-07-09T11:54:11.271Z,54.11
2017-07-09T11:55:23.242Z,55.16
2017-07-09T11:56:35.547Z,54.68
2017-07-09T11:57:47.518Z,54.46
2017-07-09T11:59:00.159Z,55.43
2017-07-09T12:00:12.406Z,53.86
2017-07-09T12:01:24.754Z,55.46
2017-07-09T12:02:36.473Z,55.36
2017-07-09T12:03:49.048Z,54.58
2017-07-09T12:05:01.692Z,55
2017-07-09T12:06:13.909Z,55.1
2017-07-09T12:07:26.253Z,54.7
2017-07-09T12:08:38.535Z,55.41
2017-07-09T12:09:51.145Z,55.15
2017-07-09T12:11:03.444Z,54.17
2017-07-09T12:12:15.117Z,54.19
2017-07-09T12:13:27.374Z,53.7
2017-07-09T12:14:39.707Z,52.94
2017-07-09T12:15:51.734Z,50.59
2017-07-09T12:17:03.977Z,51.89
2017-07-09T12:18:16.643Z,52.58
2017-07-09T12:19:28.915Z,50.51
2017-07-09T12:20:40.916Z,49.65
2017-07-09T12:21:53.261Z,49.46
2017-07-09T12:23:05.258Z,51.03
2017-07-09T12:24:16.671Z,51.81
2017-07-09T12:25:29.335Z,52.21
2017-07-09T12:26:41.650Z,51.42
2017-07-09T12:27:53.666Z,52.28
2017-07-09T12:29:06.021Z,51.42
2017-07-09T12:30:18.052Z,50.83
2017-07-09T12:31:30.304Z,50.63
2017-07-09T12:32:42.825Z,50.73
2017-07-09T12:33:55.089Z,51.62
2017-07-09T12:35:07.387Z,49.97
2017-07-09T12:36:19.713Z,49.77
2017-07-09T12:37:31.664Z,49.87
2017-07-09T12:38:44.306Z,48.59
2017-07-09T12:39:56.570Z,49.58
2017-07-09T12:41:08.276Z,50.76
2017-07-09T12:42:20.922Z,50.66
2017-07-09T12:43:33.259Z,50.56
2017-07-09T12:44:45.578Z,50.85
2017-07-09T12:45:58.198Z,51.47
2017-07-09T12:47:10.468Z,50.68
2017-07-09T12:48:23.119Z,49.9
2017-07-09T12:49:35.491Z,48.35
2017-07-09T12:50:48.031Z,47.85
2017-07-09T12:52:00.338Z,47.85
2017-07-09T12:53:12.652Z,49.52
2017-07-09T12:54:24.951Z,48.13
2017-07-09T12:55:37.227Z,49.4
2017-07-09T12:56:49.860Z,49.6
2017-07-09T12:58:02.168Z,51.64
2017-07-09T12:59:13.538Z,52.72
2017-07-09T13:00:26.155Z,52.33
2017-07-09T13:01:38.423Z,50.76
2017-07-09T13:02:50.759Z,50.76
2017-07-09T13:04:02.716Z,49.3
2017-07-09T13:05:15.044Z,49.5
2017-07-09T13:06:27.684Z,49.6
2017-07-09T13:07:40.325Z,49.6
2017-07-09T13:08:52.889Z,49.33
2017-07-09T13:10:04.554Z,48.64
2017-07-09T13:11:16.837Z,47.56
2017-07-09T13:12:29.162Z,47.36
2017-07-09T13:13:41.491Z,48.44
2017-07-09T13:14:54.182Z,48.03
2017-07-09T13:16:05.562Z,49.23
2017-07-09T13:17:17.221Z,49.52
2017-07-09T13:18:29.788Z,48.13
2017-07-09T13:19:42.058Z,47.53
2017-07-09T13:20:54.659Z,47.53
2017-07-09T13:22:06.976Z,48.82
2017-07-09T13:23:18.640Z,49.58
2017-07-09T13:24:30.949Z,50.66
2017-07-09T13:25:42.351Z,49.48
2017-07-09T13:26:54.978Z,48.67
2017-07-09T13:28:06.993Z,50.63
2017-07-09T13:29:19.605Z,52.87
2017-07-09T13:30:31.926Z,52.6
2017-07-09T13:31:44.180Z,51.72
2017-07-09T13:32:56.772Z,51.22
2017-07-09T13:34:09.037Z,51.22
2017-07-09T13:35:21.636Z,49.85
2017-07-09T13:36:33.664Z,49.65
2017-07-09T13:37:45.605Z,49.26
2017-07-09T13:38:58.243Z,48.86
2017-07-09T13:40:09.921Z,48.84
2017-07-09T13:41:22.231Z,49.92
2017-07-09T13:42:34.843Z,50.42
2017-07-09T13:43:46.509Z,50.59
2017-07-09T13:44:59.205Z,50.51
2017-07-09T13:46:11.232Z,50.42
2017-07-09T13:47:23.866Z,49.73
2017-07-09T13:48:35.854Z,49.33
2017-07-09T13:49:47.839Z,49.92
2017-07-09T13:51:00.454Z,49.43
2017-07-09T13:52:12.778Z,49.8
2017-07-09T13:53:25.027Z,49.9
2017-07-09T13:54:37.320Z,49.23
2017-07-09T13:55:49.888Z,49.6
2017-07-09T13:57:02.176Z,50.49
2017-07-09T13:58:14.842Z,50.49
2017-07-09T13:59:27.089Z,50.68
2017-07-09T14:00:39.075Z,50.98
2017-07-09T14:01:51.323Z,51
2017-07-09T14:03:03.564Z,51
2017-07-09T14:04:16.195Z,50.81
2017-07-09T14:05:28.433Z,51
2017-07-09T14:06:40.119Z,50.61
2017-07-09T14:07:52.472Z,49.82
2017-07-09T14:09:04.845Z,48.86
2017-07-09T14:10:16.192Z,48.74
2017-07-09T14:11:28.766Z,49.43
2017-07-09T14:12:41.046Z,48.84
2017-07-09T14:13:53.402Z,49.51
2017-07-09T14:15:05.398Z,49.6
2017-07-09T14:16:17.726Z,50.19
2017-07-09T14:17:29.632Z,49.99
2017-07-09T14:18:41.612Z,50.56
2017-07-09T14:19:53.887Z,50.56
2017-07-09T14:21:05.588Z,49.97
2017-07-09T14:22:17.579Z,49.08
2017-07-09T14:23:28.913Z,49.36
2017-07-09T14:24:41.193Z,49.58
2017-07-09T14:25:53.797Z,50.34
2017-07-09T14:27:06.667Z,51.03
2017-07-09T14:28:19.313Z,51.03
2017-07-09T14:29:31.576Z,50.54
2017-07-09T14:30:43.275Z,50.54
2017-07-09T14:31:55.576Z,49.55
2017-07-09T14:33:07.892Z,48.77
2017-07-09T14:34:19.850Z,49.65
2017-07-09T14:35:32.090Z,51.12
2017-07-09T14:36:44.385Z,51.29
2017-07-09T14:37:57.045Z,51.07
2017-07-09T14:39:09.641Z,51.76
2017-07-09T14:40:21.640Z,51.25
2017-07-09T14:41:33.882Z,51.34
2017-07-09T14:42:46.746Z,52.13
2017-07-09T14:43:59.029Z,51.25
2017-07-09T14:45:11.650Z,51.03
2017-07-09T14:46:24.217Z,51.12
2017-07-09T14:47:36.163Z,52.1
2017-07-09T14:48:48.490Z,51.61
2017-07-09T14:50:00.734Z,52.67
2017-07-09T14:51:12.698Z,52.15
2017-07-09T14:52:25.288Z,52.61
2017-07-09T14:53:37.272Z,52.2
2017-07-09T14:54:49.530Z,53.25
2017-07-09T14:56:02.126Z,53.91
2017-07-09T14:57:14.754Z,54.69
2017-07-09T14:58:27.042Z,55.86
2017-07-09T14:59:38.674Z,56.61
2017-07-09T15:00:50.673Z,57.49
2017-07-09T15:02:02.687Z,57.56
2017-07-09T15:03:15.215Z,57.85
2017-07-09T15:04:27.840Z,57.85
2017-07-09T15:05:39.812Z,58.04
2017-07-09T15:06:52.150Z,58.73
2017-07-09T15:08:03.781Z,58.31
2017-07-09T15:09:15.440Z,58.5
2017-07-09T15:10:28.050Z,59.87
2017-07-09T15:11:40.302Z,59.55
2017-07-09T15:12:52.318Z,58.87
2017-07-09T15:14:04.948Z,58.15
2017-07-09T15:15:17.180Z,58.94
2017-07-09T15:16:29.462Z,59.98
2017-07-09T15:17:41.484Z,60.27
2017-07-09T15:18:53.758Z,60.36
2017-07-09T15:20:06.126Z,61.41
2017-07-09T15:21:18.439Z,62.77
2017-07-09T15:22:29.784Z,64.39
2017-07-09T15:23:40.849Z,65.37
2017-07-09T15:24:52.245Z,65.17
2017-07-09T15:26:04.216Z,65.66
2017-07-09T15:27:16.918Z,65.14
2017-07-09T15:28:28.873Z,65.04
2017-07-09T15:29:40.892Z,65.14
2017-07-09T15:30:53.491Z,65.63
2017-07-09T15:32:06.066Z,66.37
2017-07-09T15:33:18.010Z,66.47